Time,TemperatureF,DewpointF,PressureIn,WindDirection,WindDirectionDegrees,WindSpeedMPH,WindSpeedGustMPH,Humidity,HourlyPrecipIn,Conditions,Clouds,dailyrainin,SoftwareType,DateUTC
2013-03-07 00:00:00,42.9,27.8,30.27,SSE,159,0.0,0.0,55,0.00,,,0.00,Wunderground v.1.15,2013-03-07 06:00:00,
2013-03-07 00:09:00,42.3,27.3,30.26,SSE,159,0.0,0.0,55,0.00,,,0.00,Wunderground v.1.15,2013-03-07 06:09:00,
2013-03-07 00:15:00,42.4,27.8,30.26,SSE,159,0.0,0.0,56,0.00,,,0.00,Wunderground v.1.15,2013-03-07 06:15:00,
2013-03-07 00:20:00,42.6,28.4,30.26,SSE,159,0.0,0.0,57,0.00,,,0.00,Wunderground v.1.15,2013-03-07 06:20:00,
2013-03-07 00:30:00,43.0,28.8,30.26,SSE,160,0.0,0.0,57,0.00,,,0.00,Wunderground v.1.15,2013-03-07 06:30:00,
2013-03-07 00:39:00,43.3,28.6,30.26,SSE,159,0.0,0.0,56,0.00,,,0.00,Wunderground v.1.15,2013-03-07 06:39:00,
2013-03-07 00:45:00,43.3,29.5,30.25,SSE,159,0.0,0.0,58,0.00,,,0.00,Wunderground v.1.15,2013-03-07 06:45:00,
2013-03-07 00:55:00,43.4,29.2,30.26,SSE,159,0.0,0.0,57,0.00,,,0.00,Wunderground v.1.15,2013-03-07 06:55:00,
2013-03-07 01:04:00,43.2,30.2,30.25,SSE,159,0.0,0.0,60,0.00,,,0.00,Wunderground v.1.15,2013-03-07 07:04:00,
2013-03-07 01:10:00,43.0,30.5,30.25,SSE,160,0.0,0.0,61,0.00,,,0.00,Wunderground v.1.15,2013-03-07 07:10:00,
2013-03-07 01:20:00,43.0,30.9,30.25,SSE,160,0.0,0.0,62,0.00,,,0.00,Wunderground v.1.15,2013-03-07 07:20:00,
2013-03-07 01:29:00,43.4,31.6,30.25,SSE,159,0.0,0.0,63,0.00,,,0.00,Wunderground v.1.15,2013-03-07 07:29:00,
2013-03-07 01:35:00,43.4,31.6,30.25,SSE,160,0.0,0.0,63,0.00,,,0.00,Wunderground v.1.15,2013-03-07 07:35:00,
2013-03-07 01:45:00,43.4,32.8,30.24,SSE,159,0.0,0.0,66,0.00,,,0.00,Wunderground v.1.15,2013-03-07 07:45:00,
2013-03-07 01:50:00,43.6,33.0,30.24,SSE,160,0.0,0.0,66,0.00,,,0.00,Wunderground v.1.15,2013-03-07 07:50:00,
2013-03-07 01:59:00,43.5,33.3,30.24,SSE,159,0.0,0.0,67,0.00,,,0.00,Wunderground v.1.15,2013-03-07 07:59:00,
2013-03-07 02:05:00,43.7,33.5,30.24,SSE,159,0.0,0.0,67,0.00,,,0.00,Wunderground v.1.15,2013-03-07 08:05:00,
2013-03-07 02:15:00,44.1,33.8,30.24,SSE,159,0.0,0.0,67,0.00,,,0.00,Wunderground v.1.15,2013-03-07 08:15:00,
2013-03-07 02:24:00,43.5,33.3,30.24,SSE,159,0.0,0.0,67,0.00,,,0.00,Wunderground v.1.15,2013-03-07 08:24:00,
2013-03-07 02:35:00,43.9,34.0,30.23,SSE,159,0.0,0.0,68,0.00,,,0.00,Wunderground v.1.15,2013-03-07 08:35:00,
2013-03-07 02:44:00,43.9,34.0,30.23,SSE,159,0.0,0.0,68,0.00,,,0.00,Wunderground v.1.15,2013-03-07 08:44:00,
2013-03-07 02:50:00,44.1,34.2,30.22,SSE,159,0.0,0.0,68,0.00,,,0.00,Wunderground v.1.15,2013-03-07 08:50:00,
2013-03-07 02:55:00,44.2,34.3,30.22,SSE,159,0.0,0.0,68,0.00,,,0.00,Wunderground v.1.15,2013-03-07 08:55:00,
2013-03-07 03:04:00,44.2,34.7,30.22,SSE,159,0.0,0.0,69,0.00,,,0.00,Wunderground v.1.15,2013-03-07 09:04:00,
2013-03-07 03:10:00,44.2,35.0,30.21,SSE,159,0.0,0.0,70,0.00,,,0.00,Wunderground v.1.15,2013-03-07 09:10:00,
2013-03-07 03:20:00,44.3,34.8,30.20,SSE,159,0.0,0.0,69,0.00,,,0.00,Wunderground v.1.15,2013-03-07 09:20:00,
2013-03-07 03:29:00,43.8,35.0,30.20,SSE,159,0.0,0.0,71,0.00,,,0.00,Wunderground v.1.15,2013-03-07 09:29:00,
2013-03-07 03:35:00,43.6,35.2,30.20,SSE,159,0.0,0.0,72,0.00,,,0.00,Wunderground v.1.15,2013-03-07 09:35:00,
2013-03-07 03:45:00,43.3,35.2,30.20,SSE,159,0.0,0.0,73,0.00,,,0.00,Wunderground v.1.15,2013-03-07 09:45:00,
2013-03-07 03:54:00,42.8,35.1,30.19,SSE,159,0.0,0.0,74,0.00,,,0.00,Wunderground v.1.15,2013-03-07 09:54:00,
2013-03-07 04:00:00,42.4,35.4,30.19,SSE,159,0.0,0.0,76,0.00,,,0.00,Wunderground v.1.15,2013-03-07 10:00:00,
2013-03-07 04:09:00,42.3,35.6,30.19,SSE,160,0.0,0.0,77,0.00,,,0.00,Wunderground v.1.15,2013-03-07 10:09:00,
2013-03-07 04:25:00,40.8,34.1,30.20,SSE,159,0.0,0.0,77,0.00,,,0.00,Wunderground v.1.15,2013-03-07 10:25:00,
2013-03-07 04:35:00,40.2,34.2,30.20,SSE,159,0.0,0.0,79,0.00,,,0.00,Wunderground v.1.15,2013-03-07 10:35:00,
2013-03-07 04:44:00,40.3,35.2,30.20,SSE,159,0.0,0.0,82,0.00,,,0.00,Wunderground v.1.15,2013-03-07 10:44:00,
2013-03-07 04:50:00,40.6,35.5,30.20,SSE,159,0.0,1.0,82,0.00,,,0.00,Wunderground v.1.15,2013-03-07 10:50:00,
2013-03-07 04:59:00,40.8,35.4,30.20,SSE,159,0.0,0.0,81,0.00,,,0.00,Wunderground v.1.15,2013-03-07 10:59:00,
2013-03-07 05:05:00,40.8,35.4,30.20,SSE,160,0.0,0.0,81,0.00,,,0.00,Wunderground v.1.15,2013-03-07 11:05:00,
2013-03-07 05:15:00,40.2,34.5,30.20,SSE,159,0.0,0.0,80,0.00,,,0.00,Wunderground v.1.15,2013-03-07 11:15:00,
2013-03-07 05:25:00,39.6,34.6,30.20,SSE,159,0.0,0.0,82,0.00,,,0.00,Wunderground v.1.15,2013-03-07 11:25:00,
2013-03-07 05:40:00,39.8,35.4,30.21,SSE,159,0.0,0.0,84,0.00,,,0.00,Wunderground v.1.15,2013-03-07 11:40:00,
2013-03-07 05:50:00,39.7,35.3,30.21,SSE,159,0.0,0.0,84,0.00,,,0.00,Wunderground v.1.15,2013-03-07 11:50:00,
2013-03-07 05:59:00,39.6,35.2,30.21,SSE,159,0.0,0.0,84,0.00,,,0.00,Wunderground v.1.15,2013-03-07 11:59:00,
2013-03-07 06:04:00,39.5,35.1,30.22,SSE,159,0.0,0.0,84,0.00,,,0.00,Wunderground v.1.15,2013-03-07 12:04:00,
2013-03-07 06:10:00,39.4,35.0,30.22,SSE,160,0.0,0.0,84,0.00,,,0.00,Wunderground v.1.15,2013-03-07 12:10:00,
2013-03-07 06:24:00,40.3,36.4,30.21,SSE,160,0.0,0.0,86,0.00,,,0.00,Wunderground v.1.15,2013-03-07 12:24:00,
2013-03-07 06:35:00,40.4,36.2,30.22,SSE,159,0.0,0.0,85,0.00,,,0.00,Wunderground v.1.15,2013-03-07 12:35:00,
2013-03-07 06:44:00,40.4,36.2,30.22,SSE,160,0.0,0.0,85,0.00,,,0.00,Wunderground v.1.15,2013-03-07 12:44:00,
2013-03-07 06:55:00,41.0,36.8,30.23,SSE,159,0.0,0.0,85,0.00,,,0.00,Wunderground v.1.15,2013-03-07 12:55:00,
2013-03-07 07:04:00,41.7,37.2,30.24,SSE,159,0.0,0.0,84,0.00,,,0.00,Wunderground v.1.15,2013-03-07 13:04:00,
2013-03-07 07:15:00,42.4,37.9,30.24,SSE,159,0.0,0.0,84,0.00,,,0.00,Wunderground v.1.15,2013-03-07 13:15:00,
2013-03-07 07:24:00,43.2,38.7,30.25,SSE,159,0.0,0.0,84,0.00,,,0.00,Wunderground v.1.15,2013-03-07 13:24:00,
2013-03-07 07:35:00,44.2,39.7,30.25,SSE,159,0.0,0.0,84,0.00,,,0.00,Wunderground v.1.15,2013-03-07 13:35:00,
2013-03-07 07:44:00,45.4,41.2,30.25,SSE,160,0.0,0.0,85,0.00,,,0.00,Wunderground v.1.15,2013-03-07 13:44:00,
2013-03-07 07:50:00,46.0,41.4,30.26,SSE,160,0.0,0.0,84,0.00,,,0.00,Wunderground v.1.15,2013-03-07 13:50:00,
2013-03-07 08:00:00,47.2,42.9,30.26,SSE,159,0.0,0.0,85,0.00,,,0.00,Wunderground v.1.15,2013-03-07 14:00:00,
2013-03-07 08:09:00,48.4,44.4,30.26,SE,145,0.0,0.0,86,0.00,,,0.00,Wunderground v.1.15,2013-03-07 14:09:00,
2013-03-07 08:20:00,49.3,45.0,30.27,East,94,0.0,0.0,85,0.00,,,0.00,Wunderground v.1.15,2013-03-07 14:20:00,
2013-03-07 08:30:00,49.9,45.3,30.27,NE,46,0.0,0.0,84,0.00,,,0.00,Wunderground v.1.15,2013-03-07 14:30:00,
2013-03-07 08:40:00,50.6,45.9,30.27,ENE,73,0.0,0.0,84,0.00,,,0.00,Wunderground v.1.15,2013-03-07 14:40:00,
2013-03-07 08:50:00,51.2,46.2,30.28,SE,143,0.0,1.0,83,0.00,,,0.00,Wunderground v.1.15,2013-03-07 14:50:00,
2013-03-07 08:55:00,51.5,46.5,30.28,East,101,0.0,1.0,83,0.00,,,0.00,Wunderground v.1.15,2013-03-07 14:55:00,
2013-03-07 09:00:00,51.9,46.6,30.28,East,98,0.0,1.0,82,0.00,,,0.00,Wunderground v.1.15,2013-03-07 15:00:00,
2013-03-07 09:09:00,52.6,46.6,30.28,NNE,20,1.0,1.0,80,0.00,,,0.00,Wunderground v.1.15,2013-03-07 15:09:00,
2013-03-07 09:20:00,53.1,46.8,30.27,East,100,1.0,1.0,79,0.00,,,0.00,Wunderground v.1.15,2013-03-07 15:20:00,
2013-03-07 09:25:00,53.2,46.2,30.27,East,96,1.0,1.0,77,0.00,,,0.00,Wunderground v.1.15,2013-03-07 15:25:00,
2013-03-07 09:34:00,54.2,47.8,30.27,ESE,116,1.0,1.0,79,0.00,,,0.00,Wunderground v.1.15,2013-03-07 15:34:00,
2013-03-07 09:45:00,55.0,48.3,30.27,SSE,149,1.0,1.0,78,0.00,,,0.00,Wunderground v.1.15,2013-03-07 15:45:00,
2013-03-07 09:54:00,55.6,48.8,30.27,East,91,1.0,1.0,78,0.00,,,0.00,Wunderground v.1.15,2013-03-07 15:54:00,
2013-03-07 10:05:00,56.9,49.8,30.27,SE,143,1.0,1.0,77,0.00,,,0.00,Wunderground v.1.15,2013-03-07 16:05:00,
2013-03-07 10:15:00,58.4,51.2,30.27,NW,314,1.0,1.0,77,0.00,,,0.00,Wunderground v.1.15,2013-03-07 16:15:00,
2013-03-07 10:25:00,59.3,51.4,30.27,ESE,122,1.0,3.0,75,0.00,,,0.00,Wunderground v.1.15,2013-03-07 16:25:00,
2013-03-07 10:35:00,59.7,51.4,30.27,SE,146,1.0,2.0,74,0.00,,,0.00,Wunderground v.1.15,2013-03-07 16:35:00,
2013-03-07 10:45:00,60.5,52.2,30.27,East,89,2.0,2.0,74,0.00,,,0.00,Wunderground v.1.15,2013-03-07 16:45:00,
2013-03-07 10:54:00,60.9,52.2,30.26,SE,136,2.0,2.0,73,0.00,,,0.00,Wunderground v.1.15,2013-03-07 16:54:00,
2013-03-07 11:05:00,62.4,53.3,30.26,ESE,102,1.0,3.0,72,0.00,,,0.00,Wunderground v.1.15,2013-03-07 17:05:00,
2013-03-07 11:15:00,63.7,53.3,30.26,West,281,1.0,1.0,69,0.00,,,0.00,Wunderground v.1.15,2013-03-07 17:15:00,
2013-03-07 11:25:00,64.0,53.2,30.26,WNW,298,2.0,2.0,68,0.00,,,0.00,Wunderground v.1.15,2013-03-07 17:25:00,
2013-03-07 11:34:00,65.1,53.5,30.25,SSE,153,2.0,2.0,66,0.00,,,0.00,Wunderground v.1.15,2013-03-07 17:34:00,
2013-03-07 11:45:00,65.7,53.6,30.25,ESE,120,2.0,2.0,65,0.00,,,0.00,Wunderground v.1.15,2013-03-07 17:45:00,
2013-03-07 11:55:00,66.5,53.5,30.24,SSW,203,1.0,1.0,63,0.00,,,0.00,Wunderground v.1.15,2013-03-07 17:55:00,
2013-03-07 12:04:00,67.4,53.0,30.24,SE,132,2.0,2.0,60,0.00,,,0.00,Wunderground v.1.15,2013-03-07 18:04:00,
2013-03-07 12:10:00,67.8,53.9,30.24,ESE,115,2.0,2.0,61,0.00,,,0.00,Wunderground v.1.15,2013-03-07 18:10:00,
2013-03-07 12:20:00,67.9,53.5,30.23,NE,43,2.0,2.0,60,0.00,,,0.00,Wunderground v.1.15,2013-03-07 18:20:00,
2013-03-07 13:05:00,71.1,52.6,30.20,SE,127,2.0,3.0,52,0.00,,,0.00,Wunderground v.1.15,2013-03-07 19:05:00,
2013-03-07 13:14:00,71.6,52.5,30.19,ESE,115,2.0,4.0,51,0.00,,,0.00,Wunderground v.1.15,2013-03-07 19:14:00,
2013-03-07 13:20:00,72.2,51.4,30.19,SSW,210,2.0,2.0,48,0.00,,,0.00,Wunderground v.1.15,2013-03-07 19:20:00,
2013-03-07 13:34:00,72.5,53.3,30.18,East,96,2.0,3.0,51,0.00,,,0.00,Wunderground v.1.15,2013-03-07 19:34:00,
2013-03-07 13:40:00,72.7,52.4,30.18,East,91,2.0,2.0,49,0.00,,,0.00,Wunderground v.1.15,2013-03-07 19:40:00,
2013-03-07 13:49:00,73.1,53.4,30.17,ESE,114,2.0,3.0,50,0.00,,,0.00,Wunderground v.1.15,2013-03-07 19:49:00,
2013-03-07 13:55:00,73.3,53.0,30.17,NW,308,2.0,3.0,49,0.00,,,0.00,Wunderground v.1.15,2013-03-07 19:55:00,
2013-03-07 14:04:00,73.6,53.8,30.17,SSE,160,2.0,3.0,50,0.00,,,0.00,Wunderground v.1.15,2013-03-07 20:04:00,
2013-03-07 14:15:00,74.4,54.0,30.16,SE,132,2.0,2.0,49,0.00,,,0.00,Wunderground v.1.15,2013-03-07 20:15:00,
2013-03-07 14:25:00,74.5,53.5,30.16,SE,131,2.0,6.0,48,0.00,,,0.00,Wunderground v.1.15,2013-03-07 20:25:00,
2013-03-07 14:34:00,74.3,53.3,30.15,SE,127,2.0,2.0,48,0.00,,,0.00,Wunderground v.1.15,2013-03-07 20:34:00,
2013-03-07 14:40:00,74.9,53.3,30.15,ENE,63,2.0,2.0,47,0.00,,,0.00,Wunderground v.1.15,2013-03-07 20:40:00,
2013-03-07 14:49:00,75.3,51.9,30.15,WNW,292,2.0,2.0,44,0.00,,,0.00,Wunderground v.1.15,2013-03-07 20:49:00,
2013-03-07 14:55:00,75.7,52.8,30.15,East,82,2.0,2.0,45,0.00,,,0.00,Wunderground v.1.15,2013-03-07 20:55:00,
2013-03-07 15:05:00,75.3,52.5,30.14,SE,128,2.0,2.0,45,0.00,,,0.00,Wunderground v.1.15,2013-03-07 21:05:00,
2013-03-07 15:15:00,74.9,52.7,30.14,East,97,2.0,3.0,46,0.00,,,0.00,Wunderground v.1.15,2013-03-07 21:15:00,
2013-03-07 15:24:00,74.9,52.7,30.14,ESE,108,2.0,2.0,46,0.00,,,0.00,Wunderground v.1.15,2013-03-07 21:24:00,
2013-03-07 15:30:00,75.3,53.7,30.14,East,101,2.0,2.0,47,0.00,,,0.00,Wunderground v.1.15,2013-03-07 21:30:00,
2013-03-07 15:39:00,74.9,53.9,30.14,SE,129,2.0,2.0,48,0.00,,,0.00,Wunderground v.1.15,2013-03-07 21:39:00,
2013-03-07 15:45:00,74.1,53.7,30.13,SSE,152,2.0,2.0,49,0.00,,,0.00,Wunderground v.1.15,2013-03-07 21:45:00,
2013-03-07 15:54:00,74.5,54.1,30.13,SE,130,1.0,3.0,49,0.00,,,0.00,Wunderground v.1.15,2013-03-07 21:54:00,
2013-03-07 16:05:00,74.2,54.4,30.13,SSE,150,2.0,6.0,50,0.00,,,0.00,Wunderground v.1.15,2013-03-07 22:05:00,
2013-03-07 16:15:00,73.7,54.4,30.13,ENE,78,2.0,3.0,51,0.00,,,0.00,Wunderground v.1.15,2013-03-07 22:15:00,
2013-03-07 16:25:00,73.0,54.9,30.12,SE,128,2.0,2.0,53,0.00,,,0.00,Wunderground v.1.15,2013-03-07 22:25:00,
2013-03-07 16:30:00,72.7,55.1,30.12,South,169,2.0,3.0,54,0.00,,,0.00,Wunderground v.1.15,2013-03-07 22:30:00,
2013-03-07 16:39:00,72.2,55.6,30.12,South,188,2.0,2.0,56,0.00,,,0.00,Wunderground v.1.15,2013-03-07 22:39:00,
2013-03-07 16:45:00,72.1,55.5,30.12,ESE,115,2.0,2.0,56,0.00,,,0.00,Wunderground v.1.15,2013-03-07 22:45:00,
2013-03-07 16:50:00,71.8,55.7,30.12,East,84,2.0,2.0,57,0.00,,,0.00,Wunderground v.1.15,2013-03-07 22:50:00,
2013-03-07 16:59:00,71.3,55.8,30.12,East,88,2.0,5.0,58,0.00,,,0.00,Wunderground v.1.15,2013-03-07 22:59:00,
2013-03-07 17:10:00,70.7,56.1,30.13,SE,129,2.0,2.0,60,0.00,,,0.00,Wunderground v.1.15,2013-03-07 23:10:00,
2013-03-07 17:19:00,70.2,56.1,30.13,ESE,112,2.0,3.0,61,0.00,,,0.00,Wunderground v.1.15,2013-03-07 23:19:00,
2013-03-07 17:30:00,69.6,56.0,30.13,SSE,150,2.0,2.0,62,0.00,,,0.00,Wunderground v.1.15,2013-03-07 23:30:00,
2013-03-07 17:39:00,69.4,56.3,30.14,East,96,2.0,2.0,63,0.00,,,0.00,Wunderground v.1.15,2013-03-07 23:39:00,
2013-03-07 17:50:00,68.7,56.0,30.14,SE,131,2.0,2.0,64,0.00,,,0.00,Wunderground v.1.15,2013-03-07 23:50:00,
2013-03-07 17:59:00,68.4,56.2,30.14,ESE,105,1.0,1.0,65,0.00,,,0.00,Wunderground v.1.15,2013-03-07 23:59:00,
2013-03-07 18:10:00,68.2,56.4,30.14,East,80,2.0,3.0,66,0.00,,,0.00,Wunderground v.1.15,2013-03-08 00:10:00,
2013-03-07 18:19:00,67.9,56.5,30.14,SE,124,2.0,5.0,67,0.00,,,0.00,Wunderground v.1.15,2013-03-08 00:19:00,
2013-03-07 18:25:00,67.7,56.3,30.14,ESE,120,2.0,5.0,67,0.00,,,0.00,Wunderground v.1.15,2013-03-08 00:25:00,
2013-03-07 18:34:00,67.4,56.5,30.14,ESE,119,2.0,2.0,68,0.00,,,0.00,Wunderground v.1.15,2013-03-08 00:34:00,
2013-03-07 18:40:00,67.3,56.4,30.15,SSW,194,2.0,2.0,68,0.00,,,0.00,Wunderground v.1.15,2013-03-08 00:40:00,
2013-03-07 18:49:00,67.1,56.6,30.14,SE,139,1.0,1.0,69,0.00,,,0.00,Wunderground v.1.15,2013-03-08 00:49:00,
2013-03-07 19:00:00,66.7,56.6,30.14,NNE,15,2.0,2.0,70,0.00,,,0.00,Wunderground v.1.15,2013-03-08 01:00:00,
2013-03-07 19:10:00,66.3,56.2,30.15,SSW,208,2.0,2.0,70,0.00,,,0.00,Wunderground v.1.15,2013-03-08 01:10:00,
2013-03-07 19:19:00,66.0,56.3,30.15,ESE,110,2.0,2.0,71,0.00,,,0.00,Wunderground v.1.15,2013-03-08 01:19:00,
2013-03-07 19:25:00,65.8,56.1,30.16,SE,139,2.0,2.0,71,0.00,,,0.00,Wunderground v.1.15,2013-03-08 01:25:00,
2013-03-07 19:34:00,65.5,56.2,30.15,ENE,77,2.0,2.0,72,0.00,,,0.00,Wunderground v.1.15,2013-03-08 01:34:00,
2013-03-07 19:40:00,65.3,56.0,30.15,South,184,2.0,2.0,72,0.00,,,0.00,Wunderground v.1.15,2013-03-08 01:40:00,
2013-03-07 19:49:00,64.9,56.0,30.16,East,97,2.0,2.0,73,0.00,,,0.00,Wunderground v.1.15,2013-03-08 01:49:00,
2013-03-07 20:00:00,64.7,56.2,30.16,East,79,1.0,1.0,74,0.00,,,0.00,Wunderground v.1.15,2013-03-08 02:00:00,
2013-03-07 20:09:00,64.4,55.9,30.16,SE,141,1.0,2.0,74,0.00,,,0.00,Wunderground v.1.15,2013-03-08 02:09:00,
2013-03-07 20:19:00,64.2,56.1,30.16,ESE,117,2.0,2.0,75,0.00,,,0.00,Wunderground v.1.15,2013-03-08 02:19:00,
2013-03-07 20:25:00,64.1,56.0,30.16,SSE,167,2.0,2.0,75,0.00,,,0.00,Wunderground v.1.15,2013-03-08 02:25:00,
2013-03-07 20:34:00,63.9,56.2,30.17,ESE,114,2.0,2.0,76,0.00,,,0.00,Wunderground v.1.15,2013-03-08 02:34:00,
2013-03-07 20:40:00,63.8,56.1,30.17,SE,144,2.0,2.0,76,0.00,,,0.00,Wunderground v.1.15,2013-03-08 02:40:00,
2013-03-07 20:49:00,63.6,55.9,30.17,ESE,118,2.0,3.0,76,0.00,,,0.00,Wunderground v.1.15,2013-03-08 02:49:00,
2013-03-07 21:00:00,63.2,55.9,30.18,SSE,167,2.0,3.0,77,0.00,,,0.00,Wunderground v.1.15,2013-03-08 03:00:00,
2013-03-07 21:09:00,63.0,55.7,30.18,ESE,104,2.0,2.0,77,0.00,,,0.00,Wunderground v.1.15,2013-03-08 03:09:00,
2013-03-07 21:15:00,62.9,55.6,30.18,East,86,2.0,2.0,77,0.00,,,0.00,Wunderground v.1.15,2013-03-08 03:15:00,
2013-03-07 21:24:00,62.7,55.7,30.18,SSE,149,2.0,2.0,78,0.00,,,0.00,Wunderground v.1.15,2013-03-08 03:24:00,
2013-03-07 21:34:00,62.5,55.5,30.17,ESE,122,2.0,4.0,78,0.00,,,0.00,Wunderground v.1.15,2013-03-08 03:34:00,
2013-03-07 21:40:00,62.5,55.5,30.17,SE,127,2.0,2.0,78,0.00,,,0.00,Wunderground v.1.15,2013-03-08 03:40:00,
2013-03-07 21:49:00,62.3,55.4,30.18,SE,126,2.0,2.0,78,0.00,,,0.00,Wunderground v.1.15,2013-03-08 03:49:00,
2013-03-07 22:00:00,62.2,55.6,30.18,SE,134,2.0,2.0,79,0.00,,,0.00,Wunderground v.1.15,2013-03-08 04:00:00,
2013-03-07 22:09:00,62.0,55.4,30.17,ESE,118,2.0,3.0,79,0.00,,,0.00,Wunderground v.1.15,2013-03-08 04:09:00,
2013-03-07 22:15:00,62.0,55.4,30.17,East,84,2.0,3.0,79,0.00,,,0.00,Wunderground v.1.15,2013-03-08 04:15:00,
2013-03-07 22:24:00,61.9,55.3,30.17,SE,125,1.0,2.0,79,0.00,,,0.00,Wunderground v.1.15,2013-03-08 04:24:00,
2013-03-07 22:35:00,61.8,55.2,30.17,SSE,152,1.0,1.0,79,0.00,,,0.00,Wunderground v.1.15,2013-03-08 04:35:00,
2013-03-07 22:44:00,61.7,55.1,30.17,SSE,150,1.0,1.0,79,0.00,,,0.00,Wunderground v.1.15,2013-03-08 04:44:00,
2013-03-07 22:55:00,61.6,55.4,30.16,ESE,111,1.0,1.0,80,0.00,,,0.00,Wunderground v.1.15,2013-03-08 04:55:00,
2013-03-07 23:04:00,61.6,55.4,30.16,North,357,2.0,5.0,80,0.00,,,0.00,Wunderground v.1.15,2013-03-08 05:04:00,
2013-03-07 23:09:00,61.6,55.4,30.16,SSE,148,2.0,2.0,80,0.00,,,0.00,Wunderground v.1.15,2013-03-08 05:09:00,
2013-03-07 23:15:00,61.6,55.4,30.15,South,173,1.0,2.0,80,0.00,,,0.00,Wunderground v.1.15,2013-03-08 05:15:00,
2013-03-07 23:20:00,61.6,55.4,30.15,NNE,14,1.0,1.0,80,0.00,,,0.00,Wunderground v.1.15,2013-03-08 05:20:00,
2013-03-07 23:29:00,61.5,55.3,30.16,SE,144,1.0,1.0,80,0.00,,,0.00,Wunderground v.1.15,2013-03-08 05:29:00,
2013-03-07 23:35:00,61.4,55.2,30.17,NNW,335,1.0,1.0,80,0.00,,,0.00,Wunderground v.1.15,2013-03-08 05:35:00,
2013-03-07 23:45:00,61.4,55.2,30.17,SSE,151,1.0,1.0,80,0.00,,,0.00,Wunderground v.1.15,2013-03-08 05:45:00,
2013-03-07 23:55:00,61.4,55.2,30.16,SE,132,1.0,1.0,80,0.00,,,0.00,Wunderground v.1.15,2013-03-08 05:55:00,